Index of /static/radiolicensing/html/radio-stations/community

[ICO]NameLast modifiedSizeDescription

[PARENTDIR]Parent Directory   -  
[TXT]community-main.htm 2018-10-17 04:35 60K 
[TXT]cr000003ba2crossrhyt..>2018-10-17 04:48 13K 
[TXT]cr000004ba2gtfmponty..>2018-10-17 04:48 13K 
[TXT]cr000006ba2expressfm..>2018-10-17 04:48 13K 
[TXT]cr000007ba2angelradi..>2018-10-17 04:55 13K 
[TXT]cr000008ba2unity101.htm2018-10-17 04:46 13K 
[TXT]cr000009ba2skylinego..>2018-10-17 04:48 13K 
[TXT]cr000010ba2takeoverr..>2018-10-17 04:49 13K 
[TXT]cr000011ba3radioikhl..>2018-10-17 04:53 13K 
[TXT]cr000012ba2theeye.htm 2018-10-17 04:46 13K 
[TXT]cr000013ba2harboroug..>2018-10-17 04:55 13K 
[TXT]cr000014ba3radiofaza..>2018-10-17 04:48 13K 
[TXT]cr000015ba2radiodawn..>2018-10-17 04:53 13K 
[TXT]cr000016ba2kemetradi..>2018-10-17 04:55 13K 
[TXT]cr000017ba2rnibconne..>2018-10-17 04:56 13K 
[TXT]cr000018ba2sunnygova..>2018-10-17 04:56 13K 
[TXT]cr000019ba2awazfm.htm 2018-10-17 04:48 13K 
[TXT]cr000020ba2revivalfm..>2018-10-17 04:54 13K 
[TXT]cr000021ba2bcb1066fm..>2018-10-17 04:48 13K 
[TXT]cr000022ba3phoenixfm..>2018-10-17 04:58 13K 
[TXT]cr000023ba2allfm.htm 2018-10-17 04:48 13K 
[TXT]cr000024ba2wythensha..>2018-10-17 04:49 13K 
[TXT]cr000025ba2chorleyfm..>2018-10-17 04:55 13K 
[TXT]cr000026ba3crescentr..>2018-10-17 04:54 13K 
[TXT]cr000028ba2shmufm.htm 2018-10-17 04:57 13K 
[TXT]cr000030ba3radioscil..>2018-10-17 04:57 13K 
[TXT]cr000031ba3feverfm.htm 2018-10-17 04:54 13K 
[TXT]cr000032ba3oldhamcom..>2018-10-17 04:56 13K 
[TXT]cr000033ba2tamesider..>2018-10-17 04:56 13K 
[TXT]cr000034ba3yourfm.htm 2018-10-17 04:57 13K 
[TXT]cr000035ba2salfordci..>2018-10-17 04:57 13K 
[TXT]cr000037ba2newstyler..>2018-10-17 04:50 13K 
[TXT]cr000038ba3bigcityra..>2018-10-17 04:57 13K 
[TXT]cr000039ba3unityfm.htm 2018-10-17 04:54 13K 
[TXT]cr000041ba2blackcoun..>2018-10-17 04:58 13K 
[TXT]cr000042ba3wcrfm.htm 2018-10-17 04:56 13K 
[TXT]cr000044ba3raidiofai..>2018-10-17 04:54 13K 
[TXT]cr000045ba3bfbslisbu..>2018-10-17 04:53 13K 
[TXT]cr000046ba2iurfm.htm 2018-10-17 04:55 13K 
[TXT]cr000047ba2downfm.htm 2018-10-17 04:52 13K 
[TXT]cr000049ba3lionheart..>2018-10-17 04:55 13K 
[TXT]cr000050ba3ne1fm1025..>2018-10-17 04:57 13K 
[TXT]cr000052ba2seasidefm..>2018-10-17 04:57 13K 
[TXT]cr000053ba2youthcomm..>2018-10-17 04:58 13K 
[TXT]cr000054ba3glouceste..>2018-10-17 04:53 13K 
[TXT]cr000056ba2westhullc..>2018-10-17 04:56 13K 
[TXT]cr000057ba2radioreve..>2018-10-17 04:55 13K 
[TXT]cr000058ba3bfbs.htm 2018-10-17 04:53 13K 
[TXT]cr000059ba2crossrhyt..>2018-10-17 04:56 13K 
[TXT]cr000060ba3resonance..>2018-10-17 04:48 13K 
[TXT]cr000061ba2desiradio..>2018-10-17 04:48 13K 
[TXT]cr000063ba2forestfm.htm2018-10-17 04:49 13K 
[TXT]cr000064ba2tempo1074..>2018-10-17 04:47 13K 
[TXT]cr000066ba4csr.htm 2018-10-17 04:59 13K 
[TXT]cr000067ba2asianstar..>2018-10-17 04:56 13K 
[TXT]cr000068ba3thebeatlo..>2018-10-17 04:53 13K 
[TXT]cr000069ba2nusoundra..>2018-10-17 04:55 13K 
[TXT]cr000072ba2westside8..>2018-10-17 04:57 13K 
[TXT]cr000073ba3hayesfm.htm 2018-10-17 04:57 13K 
[TXT]cr000075ba2phoenixfm..>2018-10-17 04:54 13K 
[TXT]cr000078ba2bristolco..>2018-10-17 04:56 13K 
[TXT]cr000079ba3bfbs.htm 2018-10-17 04:54 13K 
[TXT]cr000081ba3blackdiam..>2018-10-17 04:55 13K 
[TXT]cr000083ba2sheffield..>2018-10-17 04:58 13K 
[TXT]cr000085ba2branchfm.htm2018-10-17 04:56 13K 
[TXT]cr000086ba3hopefm.htm 2018-10-17 04:56 13K 
[TXT]cr000087ba4ipswichco..>2018-10-17 04:57 13K 
[TXT]cr000088ba2sirenfm.htm 2018-10-17 04:56 13K 
[TXT]cr000089ba2diversefm..>2018-10-17 04:54 13K 
[TXT]cr000090ba4radioveru..>2018-10-17 04:59 13K 
[TXT]cr000091ba2calonfm.htm 2018-10-17 04:59 13K 
[TXT]cr000092ba3bfbs.htm 2018-10-17 04:55 13K 
[TXT]cr000093ba3castledow..>2018-10-17 04:53 13K 
[TXT]cr000094ba4radiocard..>2018-10-17 04:58 13K 
[TXT]cr000095ba2cambridge..>2018-10-17 04:57 13K 
[TXT]cr000096ba3bfbs.htm 2018-10-17 04:55 13K 
[TXT]cr000098ba2crossrhyt..>2018-10-17 05:00 13K 
[TXT]cr000099ba1pendlecom..>2018-10-17 04:37 13K 
[TXT]cr000102ba2haltoncom..>2018-10-17 05:01 13K 
[TXT]cr000107ba3brfm956fm..>2018-10-17 04:54 13K 
[TXT]cr000109ba310radio.htm 2018-10-17 04:58 13K 
[TXT]cr000110ba3bgfm.htm 2018-10-17 04:58 13K 
[TXT]cr000111ba2radiotirc..>2018-10-17 05:02 13K 
[TXT]cr000112ba3soundartr..>2018-10-17 05:02 13K 
[TXT]cr000113ba2somervall..>2018-10-17 04:40 13K 
[TXT]cr000114ba3thesource..>2018-10-17 05:02 13K 
[TXT]cr000115ba3radiostau..>2018-10-17 04:58 13K 
[TXT]cr000116ba3ujimaradi..>2018-10-17 04:59 13K 
[TXT]cr000117ba2glastonbu..>2018-10-17 04:40 13K 
[TXT]cr000118ba2phonicfm.htm2018-10-17 04:58 13K 
[TXT]cr000119ba2swindon10..>2018-10-17 04:59 13K 
[TXT]cr000120ba2hotradio1..>2018-10-17 05:02 13K 
[TXT]cr000122ba2broradio.htm2018-10-17 04:40 13K 
[TXT]cr000124ba3buteislan..>2018-10-17 04:41 13K 
[TXT]cr000126ba2aliveradi..>2018-10-17 04:41 13K 
[TXT]cr000127ba2bangorfm.htm2018-10-17 04:54 13K 
[TXT]cr000129ba2aldergrov..>2018-10-17 04:59 13K 
[TXT]cr000131ba2holywoodf..>2018-10-17 04:59 13K 
[TXT]cr000132ba3drive105f..>2018-10-17 05:01 13K 
[TXT]cr000133ba3speysound..>2018-10-17 04:48 13K 
[TXT]cr000134ba3mearnsfm.htm2018-10-17 05:02 13K 
[TXT]cr000136ba3dunooncom..>2018-10-17 04:42 13K 
[TXT]cr000136wt3dunooncom..>2018-10-17 04:47 13K 
[TXT]cr000138ba3pulsecomm..>2018-10-17 04:41 13K 
[TXT]cr000139ba2lisburns9..>2018-10-17 04:54 13K 
[TXT]cr000139wt2lisburns9..>2018-10-17 04:54 13K 
[TXT]cr000140ba2blast106.htm2018-10-17 04:41 13K 
[TXT]cr000141ba23tfmcommu..>2018-10-17 04:59 13K 
[TXT]cr000142ba3spicefm.htm 2018-10-17 05:01 13K 
[TXT]cr000143ba2sparkfm.htm 2018-10-17 04:42 13K 
[TXT]cr000144ba3community..>2018-10-17 04:42 13K 
[TXT]cr000145ba2radiohart..>2018-10-17 05:02 13K 
[TXT]cr000146ba4bishopfm1..>2018-10-17 04:58 13K 
[TXT]cr000146wt4bishopfm1..>2018-10-17 04:58 13K 
[TXT]cr000147ba3bfbs.htm 2018-10-17 04:59 13K 
[TXT]cr000148ba3drystoner..>2018-10-17 05:02 13K 
[TXT]cr000150ba1sinefm.htm 2018-10-17 04:37 13K 
[TXT]cr000151ba3redroadfm..>2018-10-17 04:43 13K 
[TXT]cr000152ba3vixen101.htm2018-10-17 05:02 13K 
[TXT]cr000153ba2penistone..>2018-10-17 04:48 13K 
[TXT]cr000154ba2tmcr.htm 2018-10-17 04:42 13K 
[TXT]cr000155ba2flameccr.htm2018-10-17 04:42 13K 
[TXT]cr000156ba2tudnofm.htm 2018-10-17 05:01 13K 
[TXT]cr000158ba4beatradio..>2018-10-17 05:02 13K 
[TXT]cr000160ba4canalside..>2018-10-17 05:02 13K 
[TXT]cr000161ba2moorlands..>2018-10-17 04:42 13K 
[TXT]cr000162ba3kcclive.htm 2018-10-17 04:46 13K 
[TXT]cr000163ba3boltonfm.htm2018-10-17 05:02 13K 
[TXT]cr000164ba3legacy901..>2018-10-17 04:42 13K 
[TXT]cr000165ba3northmanc..>2018-10-17 04:40 13K 
[TXT]cr000166ba3lincolnci..>2018-10-17 04:44 13K 
[TXT]cr000168ba2gravityfm..>2018-10-17 04:39 13K 
[TXT]cr000169ba2takeoverr..>2018-10-17 04:42 13K 
[TXT]cr000170ba3ambersoun..>2018-10-17 05:02 13K 
[TXT]cr000171ba3erewashso..>2018-10-17 04:43 13K 
[TXT]cr000173ba3radiotamw..>2018-10-17 04:45 13K 
[TXT]cr000174ba3switchrad..>2018-10-17 04:43 13K 
[TXT]cr000174wt3switchrad..>2018-10-17 04:55 13K 
[TXT]cr000175ba2amburradi..>2018-10-17 04:42 13K 
[TXT]cr000177ba2raajfm.htm 2018-10-17 05:03 13K 
[TXT]cr000178ba3eavafm.htm 2018-10-17 05:02 13K 
[TXT]cr000179ba2demonfm.htm 2018-10-17 04:41 13K 
[TXT]cr000180ba2kohinoorf..>2018-10-17 05:00 13K 
[TXT]cr000181ba2hermitage..>2018-10-17 04:41 13K 
[TXT]cr000182ba3radioplus..>2018-10-17 04:46 13K 
[TXT]cr000183ba2thehillzf..>2018-10-17 04:40 13K 
[TXT]cr000184ba2inspirati..>2018-10-17 04:46 13K 
[TXT]cr000185ba2corbyradi..>2018-10-17 04:42 13K 
[TXT]cr000186ba2gaydio.htm 2018-10-17 04:43 13K 
[TXT]cr000187ba2unityradi..>2018-10-17 04:46 13K 
[TXT]cr000189ba3rwsfm1033..>2018-10-17 04:46 13K 
[TXT]cr000190ba3felixstow..>2018-10-17 04:42 13K 
[TXT]cr000190wt3felixstow..>2018-10-17 04:51 13K 
[TXT]cr000191ba3zackfm105..>2018-10-17 05:02 13K 
[TXT]cr000192ba2futurerad..>2018-10-17 04:45 13K 
[TXT]cr000193ba3camfm.htm 2018-10-17 04:59 13K 
[TXT]cr000195ba2leisurefm..>2018-10-17 04:45 13K 
[TXT]cr000196ba4bigglesfm..>2018-10-17 04:58 13K 
[TXT]cr000197ba2radiolab.htm2018-10-17 04:43 13K 
[TXT]cr000198ba2inspirefm..>2018-10-17 04:45 13K 
[TXT]cr000199ba3hcrfm.htm 2018-10-17 04:53 13K 
[TXT]cr000200ba3in2beatsf..>2018-10-17 04:53 13K 
[TXT]cr000201ba2radioashf..>2018-10-17 04:53 13K 
[TXT]cr000202ba2academyfm..>2018-10-17 04:43 13K 
[TXT]cr000203ba2academyfm..>2018-10-17 04:53 13K 
[TXT]cr000206ba2meridianf..>2018-10-17 04:43 13K 
[TXT]cr000207ba2uckfieldf..>2018-10-17 04:43 13K 
[TXT]cr000208ba2awaazradi..>2018-10-17 04:53 13K 
[TXT]cr000209ba3marlowfm.htm2018-10-17 04:53 13K 
[TXT]cr000210ba2radiobgws..>2018-10-17 04:54 13K 
[TXT]cr000211ba3seahavenf..>2018-10-17 04:48 13K 
[TXT]cr000213ba2voicefm.htm 2018-10-17 04:53 13K 
[TXT]cr000215ba4firstfm.htm 2018-10-17 04:59 13K 
[TXT]cr000216ba2vibe1076f..>2018-10-17 04:49 13K 
[TXT]cr000217ba2insanityr..>2018-10-17 04:56 13K 
[TXT]cr000218ba3gateway97..>2018-10-17 04:46 13K 
[TXT]cr000219ba3sfm1069.htm 2018-10-17 04:57 13K 
[TXT]cr000219wt3sfm.htm 2018-10-17 04:57 13K 
[TXT]cr000220ba3kanefm.htm 2018-10-17 04:54 13K 
[TXT]cr000222ba2betarbang..>2018-10-17 04:43 13K 
[TXT]cr000223ba2susyradio..>2018-10-17 04:56 13K 
[TXT]cr000224ba2reprezent..>2018-10-17 04:53 13K 
[TXT]cr000225ba2rinsefm.htm 2018-10-17 04:48 13K 
[TXT]cr000229ba2wcr.htm 2018-10-17 04:55 13K 
[TXT]cr000230ba2fromefm.htm 2018-10-17 04:56 13K 
[TXT]cr000231ba2fantasyra..>2018-10-17 04:55 13K 
[TXT]cr000232ba2bradleyst..>2018-10-17 05:02 13K 
[TXT]cr000233ba2radiowinc..>2018-10-17 04:56 13K 
[TXT]cr000234ba4bfbs.htm 2018-10-17 04:57 13K 
[TXT]cr000235ba2abbey104.htm2018-10-17 04:59 13K 
[TXT]cr000236ba3exmouthai..>2018-10-17 04:58 13K 
[TXT]cr000238ba1thevoice.htm2018-10-17 04:37 13K 
[TXT]cr000240ba2sedgemoor..>2018-10-17 05:01 13K 
[TXT]cr000241ba2applefm.htm 2018-10-17 05:00 13K 
[TXT]cr000242ba4tonefm.htm 2018-10-17 04:58 13K 
[TXT]cr000243ba2air.htm 2018-10-17 05:01 13K 
[TXT]cr000244ba1radioglan..>2018-10-17 04:37 13K 
[TXT]cr000245ba1monfm.htm 2018-10-17 04:37 13K 
[TXT]cr000248ba1chbn.htm 2018-10-17 04:37 13K 
[TXT]cr000249ba2coastfm.htm 2018-10-17 04:48 13K 
[TXT]cr000254ba1anradio.htm 2018-10-17 04:37 13K 
[TXT]cr000256ba1camglenra..>2018-10-17 04:37 13K 
[TXT]cr000257ba1celticmus..>2018-10-17 04:37 13K 
[TXT]cr000258ba2crystalfm..>2018-10-17 05:00 13K 
[TXT]cr000259ba2eastcoast..>2018-10-17 05:00 13K 
[TXT]cr000261ba2k107fm.htm 2018-10-17 05:01 13K 
[TXT]cr000262ba2nevisradi..>2018-10-17 04:59 13K 
[TXT]cr000263ba3irvinebea..>2018-10-17 05:01 13K 
[TXT]cr000264ba1kcr.htm 2018-10-17 04:37 13K 
[TXT]cr000265ba1deveronfm..>2018-10-17 04:37 13K 
[TXT]cr000266ba1td1radio.htm2018-10-17 04:38 13K 
[TXT]cr100059ba1abcfm.htm 2018-10-17 04:39 13K 
[TXT]cr100061ba1fusefm.htm 2018-10-17 04:39 13K 
[TXT]cr100062ba1belfastfm..>2018-10-17 04:39 13K 
[TXT]cr100123ba1zetlandfm..>2018-10-17 04:39 13K 
[TXT]cr100136ba1radiosang..>2018-10-17 04:39 13K 
[TXT]cr100137ba1radiowarr..>2018-10-17 04:39 13K 
[TXT]cr100138ba1beverleyf..>2018-10-17 04:39 13K 
[TXT]cr100139ba1thecat.htm 2018-10-17 04:39 13K 
[TXT]cr100142ba1heritager..>2018-10-17 04:39 13K 
[TXT]cr100143ba1akashradi..>2018-10-17 04:39 13K 
[TXT]cr100145ba1bradforda..>2018-10-17 04:39 13K 
[TXT]cr100147ba1hullkings..>2018-10-17 04:39 13K 
[TXT]cr100156ba1beyondrad..>2018-10-17 04:39 13K 
[TXT]cr100157ba1linkfm.htm 2018-10-17 04:39 13K 
[TXT]cr100180ba1dalesradi..>2018-10-17 04:40 13K 
[TXT]cr100181ba2edenfm.htm 2018-10-17 04:58 13K 
[TXT]cr100214ba1koastradi..>2018-10-17 04:40 13K 
[TXT]cr100346ba1quayfm.htm 2018-10-17 04:40 13K 
[TXT]cr100399ba1hitmixrad..>2018-10-17 04:41 13K 
[TXT]cr100520ba1novafm.htm 2018-10-17 04:41 13K 
[TXT]cr100523ba1radionewa..>2018-10-17 04:41 13K 
[TXT]cr100527ba1gulshanra..>2018-10-17 04:41 13K 
[TXT]cr100530ba1endeavour..>2018-10-17 04:41 13K 
[TXT]cr100531ba1staffordf..>2018-10-17 04:41 13K 
[TXT]cr100535ba1radiopanj..>2018-10-17 04:41 13K 
[TXT]cr100776ba1colneradi..>2018-10-17 04:44 13K 
[TXT]cr100777ba1secklowso..>2018-10-17 04:44 13K 
[TXT]cr100783ba1nliveradi..>2018-10-17 04:44 13K 
[TXT]cr100787ba1harbourra..>2018-10-17 04:44 13K 
[TXT]cr100789ba1parkradio..>2018-10-17 04:44 13K 
[TXT]cr100790ba2peterboro..>2018-10-17 05:01 13K 
[TXT]cr100792ba1salaamrad..>2018-10-17 04:44 13K 
[TXT]cr100793ba1chelmsfor..>2018-10-17 04:44 13K 
[TXT]cr100794ba1blackcatr..>2018-10-17 04:44 13K 
[TXT]cr100797ba1mkfm.htm 2018-10-17 04:44 13K 
[TXT]cr101226ba2wycombeso..>2018-10-17 04:56 13K 
[TXT]cr101226wt2wycombeso..>2018-10-17 04:56 13K 
[TXT]cr101253ba2candofm.htm 2018-10-17 05:01 13K 
[TXT]cr101255ba1angelradi..>2018-10-17 04:52 13K 
[TXT]cr101260ba1redkitera..>2018-10-17 04:52 13K 
[TXT]cr101261ba1witneyrad..>2018-10-17 04:52 13K 
[TXT]cr101263ba1weyvalley..>2018-10-17 04:52 13K 
[TXT]cr101264ba1radiocabi..>2018-10-17 04:52 13K 
[TXT]cr101266ba1sheppeyfm..>2018-10-17 04:52 13K 
[TXT]cr101268ba1andoverra..>2018-10-17 04:52 13K 
[TXT]cr101274ba1kennetrad..>2018-10-17 04:52 13K 
[TXT]cr101275ba1platformb..>2018-10-17 04:52 13K 
[TXT]cr101276ba1awaazfm.htm 2018-10-17 04:52 13K 
[TXT]cr101277ba1hailshamf..>2018-10-17 04:52 13K 
[TXT]cr101278ba1fiestafm.htm2018-10-17 04:52 13K 
[TXT]cr101282ba11bn.htm 2018-10-17 04:52 13K 
[TXT]cr101286ba1vectisrad..>2018-10-17 04:52 13K 
[TXT]cr101287ba1bfbsbrize..>2018-10-17 04:52 13K 
[TXT]cr101405ba1funkysx.htm 2018-10-17 04:54 13K 
[TXT]cr101582ba1ribblefm.htm2018-10-17 04:55 13K 
[TXT]cr101725ba1radiocaro..>2018-10-17 04:56 13K 
[TXT]cr101737ba1flexfm.htm 2018-10-17 04:56 13K 
[TXT]cr102031ba1cannockch..>2018-10-17 04:57 13K 
[TXT]cr102137ba1ninesprin..>2018-10-17 04:57 13K 
[TXT]cr102138ba1keep106.htm 2018-10-17 04:57 13K 
[TXT]cr102148ba1deanradio..>2018-10-17 04:57 13K 
[TXT]cr102160ba2radionewq..>2018-10-17 05:02 13K 
[TXT]cr102160wt1radionewq..>2018-10-17 04:57 13K 
[TXT]cr102172ba1westsomer..>2018-10-17 04:57 13K 
[TXT]cr102238ba1radiotyne..>2018-10-17 04:58 13K 
[TXT]cr102268ba1pridefm.htm 2018-10-17 04:58 13K 
[TXT]cr102273ba1juicefmbe..>2018-10-17 04:58 13K